Archdale, North Carolina
Current Conditions -  °F | °C
As of 10:54 AM on Saturday 22 Nov 2014 (Local Time) from KGSO Reporting Station
Broken Clouds Broken Clouds  
Wind Chill: 38°   Ceiling: 25000
Heat Index: 42°   Visibility: 10mi
Dew Point: 13°   Wind: 6mph
Humidity: 31%   Direction: 220°SW
Pressure: 30.51"   Gusts: NA
Location:  35.9136°N, 79.9465°W
Report Text: KGSO 221554Z 22005KT 10SM BKN250 06/M11 A3051 RMK AO2 SLP338 T00561106
Loading
Personal Weather Stations






























Interactive Weather Map New forecast layout! Learn more

10-Day Weather Forecast

Advertisements
Track Severe Weather on mobile